VJT85 KIND-KDSM
Flight info
| Callsign | VJT85 |
|---|---|
| Flight time | N/A |
| Altitude | 40000 |
| Route | MEARZ7 BVT |
| Aircraft | CL60/M-SADE3FGHIJ3J4J7P2RWXY/HB1D1 |
Departure
| Time | 2026-05-07 14:45 |
|---|---|
| Airport | Indianapolis International Airport (KIND) |
Arrival
| Time | N/A |
|---|---|
| Airport | Des Moines International Airport (KDSM) |
| Time | Latitude | Longitude | Altitude | Speed | Heading |
|---|---|---|---|---|---|
| 2026-05-07 14:17 | 39.73370 | -86.28181 | 797 ft | 0 kts | 41° |
| 2026-05-07 14:21 | 39.73370 | -86.28182 | 797 ft | 0 kts | 41° |
| 2026-05-07 14:31 | 39.73371 | -86.28181 | 797 ft | 1 kts | 29° |
| 2026-05-07 14:32 | 39.73383 | -86.28191 | 797 ft | 0 kts | 293° |
| 2026-05-07 14:40 | 39.73385 | -86.28198 | 797 ft | 2 kts | 293° |
| 2026-05-07 14:41 | 39.73392 | -86.28236 | 796 ft | 5 kts | 261° |
| 2026-05-07 14:41 | 39.73366 | -86.28293 | 796 ft | 9 kts | 233° |
| 2026-05-07 14:41 | 39.73312 | -86.28364 | 796 ft | 13 kts | 226° |
| 2026-05-07 14:41 | 39.73333 | -86.28454 | 795 ft | 13 kts | 316° |
| 2026-05-07 14:42 | 39.73405 | -86.28549 | 794 ft | 16 kts | 317° |
| 2026-05-07 14:42 | 39.73495 | -86.28667 | 793 ft | 19 kts | 314° |
| 2026-05-07 14:42 | 39.73485 | -86.28774 | 791 ft | 12 kts | 224° |
| 2026-05-07 14:42 | 39.73410 | -86.28867 | 790 ft | 16 kts | 226° |
| 2026-05-07 14:43 | 39.73320 | -86.28989 | 789 ft | 20 kts | 224° |
| 2026-05-07 14:43 | 39.73215 | -86.29131 | 787 ft | 23 kts | 229° |
| 2026-05-07 14:43 | 39.73096 | -86.29274 | 784 ft | 18 kts | 225° |
| 2026-05-07 14:43 | 39.72997 | -86.29398 | 782 ft | 15 kts | 224° |
| 2026-05-07 14:44 | 39.72931 | -86.29443 | 781 ft | 9 kts | 151° |
| 2026-05-07 14:44 | 39.72885 | -86.29388 | 782 ft | 5 kts | 136° |
| 2026-05-07 14:44 | 39.72853 | -86.29349 | 783 ft | 7 kts | 138° |
| 2026-05-07 14:44 | 39.72797 | -86.29339 | 783 ft | 10 kts | 217° |
| 2026-05-07 14:45 | 39.72772 | -86.29369 | 782 ft | 0 kts | 225° |
| 2026-05-07 14:45 | 39.72531 | -86.29672 | 777 ft | 102 kts | 224° |
| 2026-05-07 14:45 | 39.71812 | -86.30548 | 1024 ft | 165 kts | 225° |
| 2026-05-07 14:45 | 39.70937 | -86.31625 | 1843 ft | 190 kts | 226° |
| 2026-05-07 14:46 | 39.69941 | -86.32865 | 2563 ft | 200 kts | 226° |
| 2026-05-07 14:46 | 39.68922 | -86.34115 | 2986 ft | 200 kts | 227° |
| 2026-05-07 14:46 | 39.67899 | -86.35345 | 3330 ft | 201 kts | 226° |
| 2026-05-07 14:46 | 39.66865 | -86.36586 | 3546 ft | 210 kts | 227° |
| 2026-05-07 14:47 | 39.65685 | -86.37983 | 4254 ft | 239 kts | 226° |
| 2026-05-07 14:47 | 39.64452 | -86.39410 | 4876 ft | 232 kts | 225° |
| 2026-05-07 14:47 | 39.63265 | -86.40823 | 4989 ft | 225 kts | 233° |
| 2026-05-07 14:47 | 39.62663 | -86.42574 | 4977 ft | 208 kts | 272° |
| 2026-05-07 14:48 | 39.63063 | -86.44222 | 5307 ft | 196 kts | 309° |
| 2026-05-07 14:48 | 39.63982 | -86.45576 | 5825 ft | 200 kts | 315° |
| 2026-05-07 14:48 | 39.65014 | -86.46825 | 6368 ft | 202 kts | 329° |
| 2026-05-07 14:48 | 39.66382 | -86.47157 | 6893 ft | 209 kts | 9° |
| 2026-05-07 14:49 | 39.67775 | -86.46505 | 7440 ft | 215 kts | 18° |
| 2026-05-07 14:49 | 39.69154 | -86.45758 | 7978 ft | 218 kts | 18° |
| 2026-05-07 14:49 | 39.70677 | -86.44954 | 8636 ft | 250 kts | 17° |
| 2026-05-07 14:49 | 39.72375 | -86.44088 | 9538 ft | 276 kts | 17° |
| 2026-05-07 14:50 | 39.74264 | -86.43145 | 10767 ft | 290 kts | 15° |
| 2026-05-07 14:50 | 39.76181 | -86.42205 | 12054 ft | 299 kts | 15° |
| 2026-05-07 14:50 | 39.78165 | -86.41235 | 13305 ft | 306 kts | 14° |
| 2026-05-07 14:50 | 39.80167 | -86.40260 | 14484 ft | 313 kts | 13° |
| 2026-05-07 14:51 | 39.82249 | -86.39249 | 15596 ft | 321 kts | 13° |
| 2026-05-07 14:51 | 39.84389 | -86.38211 | 16692 ft | 328 kts | 12° |
| 2026-05-07 14:51 | 39.86567 | -86.37158 | 17637 ft | 337 kts | 12° |
| 2026-05-07 14:51 | 39.88791 | -86.36082 | 18598 ft | 342 kts | 11° |
| 2026-05-07 14:52 | 39.91032 | -86.34999 | 19478 ft | 350 kts | 11° |
| 2026-05-07 14:52 | 39.93365 | -86.33873 | 20354 ft | 357 kts | 11° |
| 2026-05-07 14:52 | 39.95728 | -86.32803 | 21240 ft | 355 kts | 3° |
| 2026-05-07 14:52 | 39.98111 | -86.32531 | 22053 ft | 336 kts | 342° |
| 2026-05-07 14:53 | 40.00316 | -86.33276 | 22847 ft | 318 kts | 324° |
| 2026-05-07 14:53 | 40.02102 | -86.34786 | 23610 ft | 304 kts | 308° |
| 2026-05-07 14:53 | 40.03592 | -86.36717 | 24412 ft | 304 kts | 304° |
| 2026-05-07 14:53 | 40.05088 | -86.38719 | 25206 ft | 308 kts | 304° |
| 2026-05-07 14:54 | 40.06584 | -86.40715 | 26009 ft | 311 kts | 304° |
| 2026-05-07 14:54 | 40.08093 | -86.42729 | 26758 ft | 313 kts | 304° |
| 2026-05-07 14:54 | 40.09621 | -86.44772 | 27412 ft | 317 kts | 304° |
| 2026-05-07 14:54 | 40.10651 | -86.46152 | 27812 ft | 321 kts | 304° |
| 2026-05-07 14:55 | 40.12585 | -86.48742 | 28554 ft | 326 kts | 304° |
| 2026-05-07 14:55 | 40.14288 | -86.51020 | 29227 ft | 328 kts | 304° |
| 2026-05-07 14:55 | 40.15916 | -86.53203 | 29783 ft | 332 kts | 304° |
| 2026-05-07 14:55 | 40.17411 | -86.55209 | 30297 ft | 334 kts | 304° |
| 2026-05-07 14:56 | 40.19161 | -86.57557 | 30804 ft | 337 kts | 304° |
| 2026-05-07 14:56 | 40.20806 | -86.59767 | 31250 ft | 340 kts | 303° |
| 2026-05-07 14:56 | 40.22463 | -86.61995 | 31702 ft | 342 kts | 303° |
| 2026-05-07 14:56 | 40.24120 | -86.64223 | 32126 ft | 344 kts | 303° |
| 2026-05-07 14:57 | 40.25814 | -86.66503 | 32538 ft | 347 kts | 303° |
| 2026-05-07 14:57 | 40.27503 | -86.68779 | 32947 ft | 349 kts | 303° |
| 2026-05-07 14:57 | 40.29215 | -86.71086 | 33339 ft | 350 kts | 303° |
| 2026-05-07 14:57 | 40.30835 | -86.73273 | 33636 ft | 352 kts | 303° |
| 2026-05-07 14:58 | 40.32622 | -86.75687 | 33993 ft | 355 kts | 303° |
| 2026-05-07 14:58 | 40.34332 | -86.77996 | 34422 ft | 354 kts | 303° |
| 2026-05-07 14:58 | 40.36052 | -86.80320 | 34870 ft | 353 kts | 303° |
| 2026-05-07 14:58 | 40.37750 | -86.82613 | 35314 ft | 351 kts | 303° |
| 2026-05-07 14:59 | 40.39473 | -86.84946 | 35728 ft | 350 kts | 303° |
| 2026-05-07 14:59 | 40.41148 | -86.87215 | 36098 ft | 349 kts | 303° |
| 2026-05-07 14:59 | 40.42839 | -86.89512 | 36391 ft | 350 kts | 303° |
| 2026-05-07 14:59 | 40.44548 | -86.91833 | 36682 ft | 351 kts | 303° |
| 2026-05-07 15:00 | 40.46240 | -86.94133 | 36967 ft | 352 kts | 303° |
| 2026-05-07 15:00 | 40.47971 | -86.96487 | 37256 ft | 352 kts | 304° |
| 2026-05-07 15:00 | 40.49648 | -86.98771 | 37539 ft | 352 kts | 304° |
| 2026-05-07 15:00 | 40.51358 | -87.01099 | 37798 ft | 352 kts | 304° |
| 2026-05-07 15:01 | 40.53062 | -87.03430 | 38045 ft | 352 kts | 303° |
| 2026-05-07 15:01 | 40.54570 | -87.05878 | 38276 ft | 344 kts | 295° |
| 2026-05-07 15:01 | 40.55727 | -87.08566 | 38506 ft | 337 kts | 288° |
| 2026-05-07 15:01 | 40.56528 | -87.11455 | 38691 ft | 333 kts | 281° |
| 2026-05-07 15:02 | 40.57126 | -87.14407 | 38880 ft | 334 kts | 280° |
| 2026-05-07 15:02 | 40.57712 | -87.17335 | 39076 ft | 336 kts | 280° |
| 2026-05-07 15:02 | 40.58310 | -87.20316 | 39305 ft | 335 kts | 280° |
| 2026-05-07 15:02 | 40.58909 | -87.23305 | 39520 ft | 336 kts | 280° |
| 2026-05-07 15:03 | 40.59509 | -87.26304 | 39694 ft | 336 kts | 281° |
| 2026-05-07 15:03 | 40.60113 | -87.29333 | 39859 ft | 337 kts | 280° |
| 2026-05-07 15:03 | 40.60713 | -87.32343 | 40030 ft | 338 kts | 280° |
| 2026-05-07 15:03 | 40.61316 | -87.35375 | 40064 ft | 342 kts | 281° |
| 2026-05-07 15:04 | 40.62548 | -87.41592 | 40060 ft | 351 kts | 281° |
| 2026-05-07 15:04 | 40.63801 | -87.47926 | 40052 ft | 360 kts | 281° |
| 2026-05-07 15:05 | 40.65075 | -87.54389 | 40054 ft | 367 kts | 281° |
| 2026-05-07 15:05 | 40.66385 | -87.61050 | 40052 ft | 374 kts | 281° |
| 2026-05-07 15:06 | 40.67532 | -87.66904 | 40050 ft | 379 kts | 281° |
| 2026-05-07 15:06 | 40.69005 | -87.74445 | 40046 ft | 385 kts | 281° |
| 2026-05-07 15:07 | 40.70339 | -87.81293 | 40050 ft | 388 kts | 281° |
| 2026-05-07 15:07 | 40.71676 | -87.88184 | 40047 ft | 390 kts | 281° |
| 2026-05-07 15:08 | 40.73008 | -87.95071 | 40053 ft | 390 kts | 281° |
| 2026-05-07 15:08 | 40.74345 | -88.02013 | 40051 ft | 390 kts | 281° |
| 2026-05-07 15:09 | 40.75670 | -88.08914 | 40049 ft | 390 kts | 281° |
| 2026-05-07 15:09 | 40.76990 | -88.15818 | 40043 ft | 390 kts | 281° |
| 2026-05-07 15:10 | 40.78315 | -88.22770 | 40053 ft | 391 kts | 281° |
| 2026-05-07 15:10 | 40.79630 | -88.29700 | 40054 ft | 390 kts | 281° |
| 2026-05-07 15:11 | 40.80935 | -88.36596 | 40054 ft | 391 kts | 281° |
| 2026-05-07 15:11 | 40.82248 | -88.43560 | 40052 ft | 391 kts | 281° |
| 2026-05-07 15:12 | 40.83555 | -88.50518 | 40052 ft | 392 kts | 281° |
| 2026-05-07 15:12 | 40.84868 | -88.57534 | 40050 ft | 392 kts | 281° |
| 2026-05-07 15:13 | 40.86180 | -88.64569 | 40056 ft | 392 kts | 282° |
| 2026-05-07 15:13 | 40.87473 | -88.71538 | 40063 ft | 393 kts | 281° |
| 2026-05-07 15:14 | 40.88776 | -88.78571 | 40058 ft | 392 kts | 281° |
| 2026-05-07 15:14 | 40.90058 | -88.85519 | 40053 ft | 392 kts | 281° |
| 2026-05-07 15:15 | 40.91342 | -88.92503 | 40047 ft | 392 kts | 281° |
| 2026-05-07 15:15 | 40.92629 | -88.99533 | 40048 ft | 393 kts | 281° |
| 2026-05-07 15:16 | 40.93905 | -89.06528 | 40048 ft | 393 kts | 282° |
| 2026-05-07 15:16 | 40.95184 | -89.13563 | 40045 ft | 392 kts | 282° |
| 2026-05-07 15:17 | 40.96452 | -89.20566 | 40039 ft | 393 kts | 282° |
| 2026-05-07 15:17 | 40.97718 | -89.27584 | 40036 ft | 394 kts | 282° |
| 2026-05-07 15:18 | 40.98983 | -89.34619 | 40038 ft | 394 kts | 282° |
| 2026-05-07 15:18 | 41.00235 | -89.41612 | 40037 ft | 393 kts | 282° |
| 2026-05-07 15:19 | 41.01490 | -89.48649 | 40038 ft | 393 kts | 282° |
| 2026-05-07 15:19 | 41.02743 | -89.55703 | 40033 ft | 394 kts | 282° |
| 2026-05-07 15:20 | 41.03991 | -89.62749 | 40035 ft | 394 kts | 282° |
| 2026-05-07 15:20 | 41.05224 | -89.69741 | 40022 ft | 395 kts | 282° |
| 2026-05-07 15:21 | 41.06469 | -89.76828 | 40028 ft | 395 kts | 282° |
| 2026-05-07 15:21 | 41.07702 | -89.83873 | 40023 ft | 395 kts | 282° |
| 2026-05-07 15:22 | 41.08932 | -89.90928 | 40024 ft | 395 kts | 282° |
| 2026-05-07 15:22 | 41.10168 | -89.98043 | 40019 ft | 395 kts | 282° |
| 2026-05-07 15:23 | 41.11395 | -90.05141 | 40020 ft | 396 kts | 282° |
| 2026-05-07 15:23 | 41.12627 | -90.12288 | 40019 ft | 395 kts | 282° |
| 2026-05-07 15:24 | 41.13860 | -90.19473 | 40018 ft | 395 kts | 282° |
| 2026-05-07 15:24 | 41.15075 | -90.26582 | 40018 ft | 396 kts | 282° |
| 2026-05-07 15:25 | 41.16283 | -90.33682 | 40019 ft | 396 kts | 282° |
| 2026-05-07 15:25 | 41.17486 | -90.40779 | 40014 ft | 395 kts | 282° |
| 2026-05-07 15:26 | 41.18690 | -90.47912 | 40018 ft | 395 kts | 282° |
| 2026-05-07 15:26 | 41.19884 | -90.55011 | 40016 ft | 395 kts | 282° |
| 2026-05-07 15:27 | 41.21073 | -90.62115 | 40012 ft | 396 kts | 282° |
| 2026-05-07 15:27 | 41.22259 | -90.69218 | 40021 ft | 396 kts | 282° |
| 2026-05-07 15:28 | 41.23449 | -90.76383 | 40017 ft | 396 kts | 282° |
| 2026-05-07 15:28 | 41.24396 | -90.82101 | 40010 ft | 395 kts | 281° |